createdAt,value
2018-04-12T00:00:32.975Z,12.80
2018-04-12T00:03:00.504Z,11.47
2018-04-12T00:05:28.055Z,18.33
2018-04-12T00:07:55.593Z,17.00
2018-04-12T00:10:23.942Z,16.07
2018-04-12T00:12:51.491Z,15.00
2018-04-12T00:18:25.508Z,11.57
2018-04-12T00:26:39.708Z,18.27
2018-04-12T00:29:07.240Z,16.33
2018-04-12T00:31:34.796Z,15.07
2018-04-12T00:34:05.563Z,16.70
2018-04-12T00:36:33.110Z,20.60
2018-04-12T00:39:00.638Z,16.60
2018-04-12T00:41:28.931Z,14.20
2018-04-12T00:43:56.464Z,18.80
2018-04-12T00:46:24.778Z,16.70
2018-04-12T00:48:52.311Z,19.63
2018-04-12T00:51:20.621Z,18.50
2018-04-12T00:53:59.874Z,19.20
2018-04-12T00:56:27.427Z,16.13
2018-04-12T00:58:54.957Z,19.43
2018-04-12T01:01:22.499Z,16.33
2018-04-12T01:03:50.793Z,15.87
2018-04-12T01:06:18.351Z,15.03
2018-04-12T01:08:46.002Z,19.17
2018-04-12T01:11:14.311Z,14.83
2018-04-12T01:13:47.508Z,18.23
2018-04-12T01:16:15.860Z,20.87
2018-04-12T04:20:11.928Z,25.10
2018-04-12T05:14:21.663Z,29.43
2018-04-12T05:16:49.209Z,30.60
2018-04-12T05:19:18.438Z,31.43
2018-04-12T05:34:39.795Z,34.57
2018-04-12T05:37:19.714Z,31.53
2018-04-12T05:39:47.298Z,35.93
2018-04-12T05:42:15.694Z,26.97
2018-04-12T05:44:43.254Z,29.47
2018-04-12T05:47:11.645Z,30.30
2018-04-12T05:49:43.206Z,31.47
2018-04-12T05:52:10.813Z,30.13
2018-04-12T05:54:38.377Z,27.10
2018-04-12T05:57:05.975Z,26.73
2018-04-12T06:09:16.695Z,26.87
2018-04-12T06:11:44.998Z,32.70
2018-04-12T06:17:05.271Z,29.20
2018-04-12T06:22:26.403Z,30.10
2018-04-12T06:24:54.019Z,27.63
2018-04-12T06:27:21.555Z,27.60
2018-04-12T06:29:52.211Z,31.97
2018-04-12T06:32:19.765Z,29.80
2018-04-12T06:34:47.297Z,28.17
2018-04-12T06:37:15.621Z,27.77
2018-04-12T06:39:43.161Z,31.50
2018-04-12T06:42:10.708Z,27.40
2018-04-12T06:44:38.237Z,27.83
2018-04-12T06:47:08.740Z,27.37
2018-04-12T06:49:36.272Z,25.40
2018-04-12T06:52:03.816Z,26.63
2018-04-12T06:54:32.608Z,26.27
2018-04-12T06:59:34.588Z,26.57
2018-04-12T07:02:02.196Z,28.83
2018-04-12T07:04:32.850Z,26.70
2018-04-12T07:07:00.406Z,26.43
2018-04-12T07:09:28.253Z,24.90
2018-04-12T07:11:55.796Z,24.83
2018-04-12T07:51:29.647Z,23.43
2018-04-12T07:54:15.503Z,22.10
2018-04-12T07:59:32.060Z,23.97
2018-04-12T08:11:46.514Z,23.70
2018-04-12T08:17:15.295Z,23.00
2018-04-12T08:25:33.623Z,20.90
2018-04-12T08:28:01.158Z,25.73
2018-04-12T08:30:28.717Z,22.73
2018-04-12T08:32:56.256Z,23.97
2018-04-12T08:35:23.832Z,23.20
2018-04-12T08:37:51.367Z,22.03
2018-04-12T08:40:18.910Z,19.97
2018-04-12T08:42:47.225Z,25.97
2018-04-12T08:45:14.771Z,22.33
2018-04-12T08:47:42.332Z,22.20
2018-04-12T08:50:09.883Z,25.57
2018-04-12T08:52:37.427Z,25.87
2018-04-12T08:55:05.735Z,21.77
2018-04-12T08:57:36.379Z,24.57
2018-04-12T09:00:03.940Z,20.67
2018-04-12T09:02:31.532Z,20.23
2018-04-12T09:04:59.087Z,23.37
2018-04-12T09:07:26.620Z,20.20
2018-04-12T09:09:54.172Z,23.47
2018-04-12T09:12:21.711Z,21.73
2018-04-12T09:17:41.860Z,19.63
2018-04-12T09:26:04.840Z,22.90
2018-04-12T09:28:36.240Z,21.20
2018-04-12T09:31:04.551Z,21.37
2018-04-12T09:33:32.215Z,21.67
2018-04-12T09:35:59.753Z,25.13
2018-04-12T09:38:28.047Z,22.00
2018-04-12T09:40:55.596Z,20.20
2018-04-12T09:43:23.130Z,21.57
2018-04-12T09:45:51.439Z,22.20
2018-04-12T09:48:18.982Z,22.43
2018-04-12T09:50:47.299Z,21.63
2018-04-12T09:53:18.122Z,22.77
2018-04-12T09:55:45.659Z,19.13
2018-04-12T09:58:13.208Z,21.60
2018-04-12T10:00:41.522Z,23.60
2018-04-12T10:03:12.955Z,23.20
2018-04-12T10:08:43.617Z,21.47
2018-04-12T10:11:11.170Z,20.80
2018-04-12T10:19:25.016Z,22.47
2018-04-12T10:24:51.926Z,21.77
2018-04-12T10:27:19.459Z,23.47
2018-04-12T10:29:47.755Z,21.90
2018-04-12T10:32:15.287Z,21.60
2018-04-12T10:34:42.837Z,30.53
2018-04-12T10:37:11.148Z,21.17
2018-04-12T10:39:38.704Z,21.67
2018-04-12T10:42:06.265Z,22.50
2018-04-12T10:44:34.571Z,21.57
2018-04-12T10:47:02.990Z,21.00
2018-04-12T10:49:30.609Z,22.53
2018-04-12T10:51:58.210Z,21.43
2018-04-12T10:54:28.880Z,19.47
2018-04-12T10:56:57.539Z,20.77
2018-04-12T10:59:25.222Z,24.50
2018-04-12T11:01:52.782Z,21.37
2018-04-12T11:04:20.315Z,23.17
2018-04-12T11:06:47.864Z,22.00
2018-04-12T11:09:15.406Z,23.23
2018-04-12T11:11:42.950Z,20.67
2018-04-12T11:14:10.486Z,20.60
2018-04-12T11:16:38.032Z,21.50
2018-04-12T11:19:06.348Z,19.90
2018-04-12T11:24:50.986Z,22.47
2018-04-12T11:27:19.290Z,21.13
2018-04-12T11:29:46.903Z,20.93
2018-04-12T11:32:14.426Z,20.10
2018-04-12T11:34:41.974Z,21.57
2018-04-12T11:37:12.719Z,19.43
2018-04-12T11:39:40.269Z,19.80
2018-04-12T11:42:07.795Z,22.40
2018-04-12T11:44:35.330Z,22.27
2018-04-12T11:47:02.903Z,20.57
2018-04-12T11:49:30.454Z,20.00
2018-04-12T11:51:58.083Z,23.93
2018-04-12T11:54:28.630Z,23.00
2018-04-12T11:56:56.167Z,22.53
2018-04-12T11:59:23.703Z,24.97
2018-04-12T12:01:51.239Z,21.30
2018-04-12T12:04:18.763Z,22.23
2018-04-12T12:06:46.361Z,22.30
2018-04-12T12:09:14.011Z,24.70
2018-04-12T12:11:41.575Z,23.17
2018-04-12T12:14:09.152Z,23.57
2018-04-12T12:16:37.491Z,24.00
2018-04-12T12:19:05.031Z,22.47
2018-04-12T12:24:29.010Z,22.00
2018-04-12T12:26:56.578Z,21.40
2018-04-12T12:29:24.120Z,21.30
2018-04-12T12:31:51.683Z,21.97
2018-04-12T12:34:19.997Z,22.40
2018-04-12T12:36:53.287Z,21.70
2018-04-12T12:39:26.411Z,21.50
2018-04-12T12:41:53.960Z,23.73
2018-04-12T12:44:21.497Z,24.33
2018-04-12T12:46:49.035Z,22.53
2018-04-12T12:49:16.577Z,23.43
2018-04-12T12:51:44.887Z,21.87
2018-04-12T12:54:13.820Z,22.10
2018-04-12T12:56:45.260Z,24.03
2018-04-12T12:59:12.815Z,24.90
2018-04-12T13:01:40.387Z,24.43
2018-04-12T13:04:07.943Z,20.90
2018-04-12T13:06:35.494Z,22.37
2018-04-12T13:09:09.104Z,22.70
2018-04-12T13:11:42.377Z,20.77
2018-04-12T13:17:03.625Z,22.67
2018-04-12T13:19:31.177Z,24.57
2018-04-12T14:28:57.826Z,22.60
2018-04-12T14:31:31.965Z,21.23
2018-04-12T14:34:05.236Z,19.73
2018-04-12T14:36:33.546Z,25.53
2018-04-12T14:39:01.093Z,19.97
2018-04-12T14:41:28.648Z,22.77
2018-04-12T14:43:56.193Z,21.47
2018-04-12T14:46:23.737Z,20.70
2018-04-12T14:49:03.180Z,21.57
2018-04-12T14:51:36.429Z,21.90
2018-04-12T14:54:07.180Z,20.00
2018-04-12T14:56:34.741Z,21.03
2018-04-12T14:59:02.287Z,23.10
2018-04-12T15:01:29.841Z,20.57
2018-04-12T15:03:57.387Z,22.37
2018-04-12T15:06:24.965Z,22.03
2018-04-12T15:08:58.183Z,18.47
2018-04-12T15:11:25.726Z,19.50
2018-04-12T15:14:32.150Z,19.37
2018-04-12T15:17:06.354Z,23.93
2018-04-12T15:19:53.451Z,21.40
2018-04-12T15:25:34.592Z,19.90
2018-04-12T15:28:09.422Z,21.30
2018-04-12T15:30:49.216Z,20.77
2018-04-12T15:33:17.262Z,18.40
2018-04-12T15:35:50.773Z,19.67
2018-04-12T15:38:24.141Z,19.93
2018-04-12T15:40:54.870Z,17.07
2018-04-12T15:43:34.047Z,19.80
2018-04-12T15:46:07.350Z,17.87
2018-04-12T15:48:34.905Z,20.97
2018-04-12T15:51:03.798Z,16.83
2018-04-12T15:53:31.590Z,15.90
2018-04-12T15:56:05.806Z,17.17
2018-04-12T15:58:34.074Z,20.97
2018-04-12T16:01:04.857Z,16.20
2018-04-12T16:03:33.347Z,19.97
2018-04-12T16:06:01.527Z,17.27
2018-04-12T16:08:34.971Z,17.57
2018-04-12T16:11:02.575Z,18.40
2018-04-12T16:22:21.250Z,20.60
2018-04-12T16:24:57.828Z,18.23
2018-04-12T16:27:26.190Z,17.30
2018-04-12T16:29:59.582Z,17.47
2018-04-12T16:32:27.164Z,16.50
2018-04-12T16:34:55.477Z,19.83
2018-04-12T16:37:23.017Z,19.43
2018-04-12T16:39:50.551Z,19.50
2018-04-12T16:42:18.110Z,21.63
2018-04-12T16:44:45.671Z,20.40
2018-04-12T16:47:18.954Z,17.00
2018-04-12T16:49:46.506Z,19.47
2018-04-12T16:52:14.049Z,18.47
2018-04-12T16:54:44.838Z,20.23
2018-04-12T16:57:12.444Z,20.10
2018-04-12T16:59:40.083Z,17.20
2018-04-12T17:02:07.631Z,17.93
2018-04-12T17:04:35.173Z,19.13
2018-04-12T17:07:03.486Z,18.60
2018-04-12T17:09:36.602Z,19.87
2018-04-12T17:12:09.970Z,21.07
2018-04-12T17:14:37.530Z,17.63
2018-04-12T17:17:11.628Z,18.37
2018-04-12T17:19:42.295Z,23.60
2018-04-12T17:27:57.429Z,17.43
2018-04-12T17:30:30.733Z,22.57
2018-04-12T17:32:58.281Z,23.10
2018-04-12T17:35:28.863Z,19.07
2018-04-12T17:37:56.414Z,18.77
2018-04-12T17:40:24.728Z,26.27
2018-04-12T17:42:52.318Z,20.90
2018-04-12T17:45:19.854Z,19.57
2018-04-12T17:47:47.391Z,20.83
2018-04-12T17:50:14.949Z,24.70
2018-04-12T17:52:45.624Z,19.17
2018-04-12T17:55:13.170Z,19.40
2018-04-12T17:57:40.720Z,23.53
2018-04-12T18:00:14.087Z,21.33
2018-04-12T18:02:53.163Z,22.77
2018-04-12T18:05:20.706Z,20.77
2018-04-12T18:07:57.275Z,24.43
2018-04-12T18:10:24.849Z,19.97
2018-04-12T18:15:45.612Z,19.50
2018-04-12T18:18:13.950Z,23.60
2018-04-12T18:20:41.563Z,21.57
2018-04-12T18:23:09.972Z,22.73
2018-04-12T18:25:37.562Z,23.80
2018-04-12T18:28:13.966Z,25.40
2018-04-12T18:30:42.292Z,21.13
2018-04-12T18:33:09.821Z,23.97
2018-04-12T18:35:43.085Z,25.00
2018-04-12T18:38:11.739Z,21.23
2018-04-12T18:40:39.277Z,24.53
2018-04-12T18:43:06.840Z,24.13
2018-04-12T18:45:40.341Z,24.90
2018-04-12T18:48:07.894Z,21.23
2018-04-12T18:50:41.405Z,25.13
2018-04-12T18:53:08.961Z,22.93
2018-04-12T18:55:51.519Z,21.77
2018-04-12T18:58:19.053Z,23.10
2018-04-12T19:00:47.312Z,20.83
2018-04-12T19:03:20.915Z,24.20
2018-04-12T19:05:48.488Z,23.13
2018-04-12T19:08:16.041Z,24.53
2018-04-12T19:10:46.953Z,27.97
2018-04-12T19:13:14.677Z,26.30
2018-04-12T19:21:34.972Z,26.47
2018-04-12T20:16:12.523Z,24.80
2018-04-12T20:24:39.736Z,24.70
2018-04-12T20:27:34.554Z,26.30
2018-04-12T20:30:04.640Z,26.13
2018-04-12T20:45:42.131Z,25.00
2018-04-12T20:48:09.857Z,28.67
2018-04-12T20:50:45.500Z,26.73
2018-04-12T21:06:09.041Z,31.00
2018-04-12T21:08:38.049Z,25.37
2018-04-12T21:11:22.788Z,27.53
2018-04-12T21:14:14.827Z,29.83
2018-04-12T21:16:49.749Z,27.73
2018-04-12T21:32:24.659Z,32.30
2018-04-12T21:44:33.032Z,28.57
2018-04-12T21:56:48.659Z,28.87
2018-04-12T22:15:00.785Z,29.17
2018-04-12T22:17:30.405Z,29.90
2018-04-12T22:21:04.734Z,27.30
2018-04-12T22:23:34.924Z,26.43
2018-04-12T22:26:05.681Z,29.27
2018-04-12T22:28:33.224Z,29.60
2018-04-12T22:31:00.763Z,26.70
2018-04-12T22:33:34.042Z,28.93
2018-04-12T22:36:02.351Z,32.23
2018-04-12T22:38:30.337Z,26.30
2018-04-12T22:41:03.922Z,24.77
2018-04-12T22:43:31.507Z,26.93
2018-04-12T22:45:59.048Z,27.87
2018-04-12T22:48:26.579Z,30.60
2018-04-12T22:50:54.882Z,27.20
2018-04-12T22:53:25.523Z,30.97
2018-04-12T22:56:04.759Z,26.37
2018-04-12T22:58:32.344Z,25.50
2018-04-12T23:01:05.680Z,26.30
2018-04-12T23:03:33.257Z,29.90
2018-04-12T23:06:00.799Z,30.93
2018-04-12T23:08:31.524Z,26.47
2018-04-12T23:10:59.768Z,34.67
2018-04-12T23:19:13.897Z,26.13
2018-04-12T23:21:41.488Z,29.70
2018-04-12T23:24:14.771Z,31.97
2018-04-12T23:26:42.315Z,31.17
2018-04-12T23:29:09.870Z,29.30
2018-04-12T23:31:40.520Z,30.13
2018-04-12T23:34:08.060Z,25.90
2018-04-12T23:36:41.533Z,29.10
2018-04-12T23:39:14.839Z,32.70
2018-04-12T23:41:49.026Z,29.57
2018-04-12T23:44:16.587Z,29.87
2018-04-12T23:46:44.135Z,31.67
2018-04-12T23:49:17.388Z,29.23
2018-04-12T23:51:44.932Z,27.87
2018-04-12T23:54:16.267Z,25.90
2018-04-12T23:56:43.808Z,28.20
2018-04-12T23:59:11.350Z,32.80
